SBOSBO ACE / GCRR
Speedbird OnlineSpeedbird Online ACE / GCRR

Lanzarote Airport
22:09 21°C

Location Arrecife, Spain
Latitude: 28.945499
Longitude: -13.6052
Local Time 22:09 on 29 May 2024
UTC +1 hours (Atlantic/Canary)
Currency £1 equals EUR 1.18
METAR GCRR 292030Z 34010KT 240V020 9999 FEW020 BKN025 21/15 Q1016
TAF TAF GCRR 292000Z 2921/3021 34015KT 9999 FEW025 TX27/3014Z TN19/3006Z
Weather As Of 29 May 2024 22:09
Description Broken clouds
Wind 19 km/h from North (340°)
Cloud Cover 75%
Precipitation Rain: none, Snow: none
Sunrise 06:57
Sunset 20:47
NOTAM 9 active NOTAM
Rotations During the last 90 days there were
104 flights from LGW
103 flights to LGW
Lounges Guacimeta Lounge, Terminal 1, 2nd floo
Web Airport Website | Wikipedia
Codes IATA: ACE
ICAO: GCRR
Altitude 14 Meter / 46 Feet
Distance 2,755 KM / 1,712 Miles
from London.
Runways
RunwayLength (m)Surface
032400Asphalt
212400Asphalt
Radio
TypeDescriptionFrequency
APPCANARIAS APP129.3
ATISATIS118.625
GNDGND121.8
TWRTWR120.7
Live ATC



Support Speedbird Online

© 2017-2024 Speedbird Online